Time;durP1;ratioP1;P1;durP2;ratioP2;P2;SDS_P1;SDS_P2;PMS_P1;PMS_P2;Temp;Humidity;BMP_temperature;BMP_pressure;BME280_temperature;BME280_humidity;BME280_pressure;Samples;Min_cycle;Max_cycle;Signal;HPM_P1;HPM_P2
2023/03/14 00:02:20;;;;;;;5.20;1.42;;;12.80;92.60;;;;;;5115766;28;20103;-73
2023/03/14 00:04:46;;;;;;;3.97;1.48;;;12.70;93.00;;;;;;5115754;28;20096;-73
2023/03/14 00:07:13;;;;;;;7.22;1.55;;;12.60;93.70;;;;;;5115746;28;20032;-74
2023/03/14 00:09:38;;;;;;;4.80;1.50;;;12.50;94.20;;;;;;5114804;28;20028;-73
2023/03/14 00:12:04;;;;;;;5.10;1.60;;;12.40;94.50;;;;;;5115577;28;20059;-73
2023/03/14 00:14:31;;;;;;;5.38;1.70;;;12.40;94.20;;;;;;5115553;28;20088;-74
2023/03/14 00:16:57;;;;;;;4.63;1.38;;;12.40;94.20;;;;;;5115431;28;20028;-73
2023/03/14 00:19:22;;;;;;;4.05;1.10;;;12.50;94.30;;;;;;5115436;28;20120;-74
2023/03/14 00:21:48;;;;;;;6.63;1.52;;;12.50;93.90;;;;;;5114495;28;20040;-73
2023/03/14 00:24:13;;;;;;;7.13;1.67;;;12.50;93.60;;;;;;5114529;28;20042;-73
2023/03/14 00:26:39;;;;;;;4.38;1.50;;;12.60;93.20;;;;;;5115318;28;20016;-73
2023/03/14 00:29:05;;;;;;;4.45;1.48;;;12.60;93.20;;;;;;5114296;28;20475;-73
2023/03/14 00:31:30;;;;;;;7.93;2.22;;;12.60;93.10;;;;;;5114305;28;20043;-73
2023/03/14 00:33:56;;;;;;;4.95;1.50;;;12.60;93.00;;;;;;5115140;28;20027;-74
2023/03/14 00:36:23;;;;;;;4.60;1.70;;;12.60;93.10;;;;;;5115130;28;20086;-73
2023/03/14 00:38:50;;;;;;;2.78;1.30;;;12.60;93.10;;;;;;5115000;28;20031;-74
2023/03/14 00:41:19;;;;;;;5.20;1.20;;;12.60;93.00;;;;;;5115008;28;20020;-74
2023/03/14 00:43:45;;;;;;;5.55;1.65;;;12.60;92.50;;;;;;5114978;28;20052;-74
2023/03/14 00:46:12;;;;;;;4.93;1.17;;;12.60;91.30;;;;;;5114922;28;20027;-73
2023/03/14 00:48:38;;;;;;;5.90;1.30;;;12.60;91.20;;;;;;5114636;28;20069;-74
2023/03/14 00:51:07;;;;;;;2.35;0.90;;;12.60;90.00;;;;;;5113911;28;20032;-73
2023/03/14 00:53:36;;;;;;;10.57;1.33;;;12.60;89.10;;;;;;5114781;28;20023;-73
2023/03/14 00:56:04;;;;;;;3.80;0.60;;;12.60;88.30;;;;;;5114909;28;20046;-73
2023/03/14 00:58:30;;;;;;;3.47;0.70;;;12.50;86.10;;;;;;5114617;28;20024;-74
2023/03/14 01:00:57;;;;;;;1.95;0.35;;;12.50;86.30;;;;;;5114769;28;20024;-72
2023/03/14 01:03:23;;;;;;;3.53;0.73;;;12.50;85.00;;;;;;5114644;28;20039;-72
2023/03/14 01:05:50;;;;;;;4.30;0.80;;;12.50;84.60;;;;;;5114683;28;20024;-73
2023/03/14 01:08:16;;;;;;;3.03;0.55;;;12.50;84.80;;;;;;5114425;28;20087;-72
2023/03/14 01:10:42;;;;;;;5.38;0.93;;;12.50;85.10;;;;;;5114463;28;20036;-72
2023/03/14 01:13:08;;;;;;;5.88;0.85;;;12.40;85.70;;;;;;5114379;28;20062;-73
2023/03/14 01:15:35;;;;;;;3.58;0.40;;;12.40;86.30;;;;;;5114392;28;20062;-72
2023/03/14 01:18:02;;;;;;;1.20;0.60;;;12.40;85.50;;;;;;5113471;28;20499;-73
2023/03/14 01:20:28;;;;;;;5.50;0.63;;;12.40;86.20;;;;;;5113400;28;20024;-73
2023/03/14 01:22:53;;;;;;;2.00;0.63;;;12.40;85.20;;;;;;5113364;28;20067;-73
2023/03/14 01:25:19;;;;;;;2.58;0.70;;;12.40;85.60;;;;;;5114185;28;20048;-73
2023/03/14 01:27:45;;;;;;;4.53;1.05;;;12.30;84.90;;;;;;5113270;28;20042;-73
2023/03/14 01:30:12;;;;;;;2.15;0.50;;;12.30;85.70;;;;;;5114127;28;20031;-73
2023/03/14 01:32:38;;;;;;;5.10;0.80;;;12.30;85.10;;;;;;5113063;28;20024;-73
2023/03/14 01:35:05;;;;;;;4.53;0.90;;;12.30;84.70;;;;;;5113044;28;20032;-72
2023/03/14 01:37:30;;;;;;;4.95;0.80;;;12.30;84.60;;;;;;5112903;28;20080;-73
2023/03/14 01:39:56;;;;;;;3.15;0.60;;;12.30;84.80;;;;;;5113972;28;20058;-72
2023/03/14 01:42:21;;;;;;;2.53;0.60;;;12.40;84.60;;;;;;5113871;28;20024;-73
2023/03/14 01:44:48;;;;;;;4.78;0.82;;;12.40;84.80;;;;;;5113893;28;20046;-73
2023/03/14 01:47:14;;;;;;;4.35;0.95;;;12.30;85.00;;;;;;5113817;28;20035;-72
2023/03/14 01:49:40;;;;;;;3.78;1.13;;;12.30;85.50;;;;;;5113830;28;20032;-73
2023/03/14 01:52:28;;;;;;;2.65;0.63;;;12.20;85.50;;;;;;5113921;28;20045;-73
2023/03/14 01:54:57;;;;;;;0.90;0.40;;;12.20;85.40;;;;;;5113977;28;20031;-73
2023/03/14 01:57:32;;;;;;;5.68;0.80;;;12.20;85.00;;;;;;5113653;28;20031;-73
2023/03/14 02:00:08;;;;;;;2.53;0.60;;;12.20;84.70;;;;;;5112704;28;20042;-73
2023/03/14 02:02:34;;;;;;;3.53;0.45;;;12.10;85.50;;;;;;5113655;28;20020;-73
2023/03/14 02:05:00;;;;;;;4.82;0.63;;;12.10;86.10;;;;;;5113649;28;20080;-73
2023/03/14 02:07:35;;;;;;;1.98;0.52;;;12.10;86.50;;;;;;5113577;28;20028;-72
2023/03/14 02:10:03;;;;;;;2.95;0.93;;;12.20;86.50;;;;;;5113555;28;20020;-72
2023/03/14 02:12:29;;;;;;;5.18;0.50;;;12.10;86.30;;;;;;5113586;28;20027;-72
2023/03/14 02:14:55;;;;;;;4.60;0.80;;;12.10;86.60;;;;;;5113491;28;20024;-73
2023/03/14 02:17:23;;;;;;;4.47;0.77;;;12.10;86.20;;;;;;5113428;28;20039;-72
2023/03/14 02:19:49;;;;;;;4.65;0.98;;;12.10;86.40;;;;;;5113454;28;20050;-72
2023/03/14 02:22:16;;;;;;;5.55;0.80;;;12.10;86.30;;;;;;5113610;28;20016;-72
2023/03/14 02:24:41;;;;;;;2.70;0.70;;;12.00;86.40;;;;;;5113458;28;20028;-73
2023/03/14 02:27:15;;;;;;;4.88;0.73;;;12.10;87.40;;;;;;5113418;28;20029;-73
2023/03/14 02:29:53;;;;;;;4.28;0.98;;;12.00;86.80;;;;;;5113533;28;20035;-73
2023/03/14 02:32:21;;;;;;;3.50;0.98;;;12.10;86.70;;;;;;5113377;28;20020;-73
2023/03/14 02:34:51;;;;;;;3.72;0.52;;;12.00;87.30;;;;;;5113297;28;20027;-72
2023/03/14 02:37:19;;;;;;;5.20;1.05;;;12.00;87.40;;;;;;5113262;28;20028;-73
2023/03/14 02:39:45;;;;;;;0.52;0.30;;;12.00;87.40;;;;;;5113274;28;20020;-73
2023/03/14 02:42:13;;;;;;;3.53;0.80;;;12.00;87.20;;;;;;5113270;28;20049;-73
2023/03/14 02:44:54;;;;;;;2.75;0.90;;;12.00;87.60;;;;;;5113269;28;20024;-74
2023/03/14 02:47:28;;;;;;;1.50;0.80;;;12.00;87.70;;;;;;5115598;28;20024;-73
2023/03/14 02:50:01;;;;;;;6.03;1.20;;;12.00;87.50;;;;;;5117238;28;20043;-74
2023/03/14 02:52:26;;;;;;;6.43;0.80;;;12.00;88.00;;;;;;5117175;28;20051;-74
2023/03/14 02:54:52;;;;;;;2.78;0.77;;;12.00;87.90;;;;;;5117138;28;20032;-74
2023/03/14 02:57:18;;;;;;;4.82;0.65;;;12.00;87.80;;;;;;5117002;28;20081;-74
2023/03/14 02:59:43;;;;;;;3.00;1.00;;;12.00;87.80;;;;;;5117009;28;20032;-74
2023/03/14 03:02:09;;;;;;;3.85;0.68;;;12.00;88.10;;;;;;5116951;28;20028;-74
2023/03/14 03:04:34;;;;;;;4.15;1.25;;;12.00;88.20;;;;;;5116906;28;20055;-73
2023/03/14 03:07:00;;;;;;;4.13;0.90;;;12.00;88.60;;;;;;5116848;28;20088;-73
2023/03/14 03:09:25;;;;;;;1.70;0.60;;;12.00;89.00;;;;;;5116740;28;20092;-73
2023/03/14 03:11:51;;;;;;;5.85;0.82;;;11.90;89.00;;;;;;5116795;28;20081;-73
2023/03/14 03:14:17;;;;;;;3.30;0.73;;;11.90;89.40;;;;;;5116725;28;20116;-73
2023/03/14 03:16:42;;;;;;;2.53;0.85;;;11.90;90.00;;;;;;5116725;28;20020;-73
2023/03/14 03:19:08;;;;;;;5.38;1.05;;;11.90;90.20;;;;;;5116567;28;20437;-73
2023/03/14 03:21:34;;;;;;;2.80;1.00;;;11.80;90.60;;;;;;5116576;28;20039;-73
2023/03/14 03:24:00;;;;;;;6.72;1.00;;;11.80;90.70;;;;;;5115729;28;20053;-74
2023/03/14 03:26:26;;;;;;;3.25;0.90;;;11.80;90.90;;;;;;5115546;28;20027;-74
2023/03/14 03:28:51;;;;;;;4.28;1.08;;;11.70;91.10;;;;;;5115521;28;20091;-74
2023/03/14 03:31:17;;;;;;;5.25;0.90;;;11.60;91.20;;;;;;5116531;28;20051;-74
2023/03/14 03:33:43;;;;;;;5.25;1.10;;;11.70;91.30;;;;;;5115394;28;20024;-73
2023/03/14 03:36:09;;;;;;;3.55;1.00;;;11.70;91.30;;;;;;5116453;28;20157;-73
2023/03/14 03:38:35;;;;;;;7.40;1.20;;;11.60;91.40;;;;;;5115368;28;20035;-74
2023/03/14 03:41:07;;;;;;;4.72;0.80;;;11.60;91.70;;;;;;5116276;28;20024;-73
2023/03/14 03:43:33;;;;;;;4.65;1.27;;;11.60;91.70;;;;;;5116232;28;20383;-73
2023/03/14 03:46:03;;;;;;;5.45;0.80;;;11.60;91.70;;;;;;5116257;28;20032;-74
2023/03/14 03:48:29;;;;;;;4.90;0.90;;;11.60;91.50;;;;;;5115965;28;20040;-73
2023/03/14 03:50:54;;;;;;;5.00;1.15;;;11.60;91.70;;;;;;5116050;28;20055;-74
2023/03/14 03:53:20;;;;;;;1.88;0.70;;;11.60;91.60;;;;;;5116008;28;20036;-73
2023/03/14 03:55:46;;;;;;;2.45;0.60;;;11.50;91.80;;;;;;5116003;28;20032;-74
2023/03/14 03:58:11;;;;;;;7.25;1.10;;;11.60;91.60;;;;;;5114498;28;20029;-73
2023/03/14 04:00:38;;;;;;;4.03;0.90;;;11.50;91.80;;;;;;5114970;28;20029;-73
2023/03/14 04:03:04;;;;;;;3.70;0.98;;;11.50;92.10;;;;;;5115800;28;20035;-74
2023/03/14 04:05:30;;;;;;;7.35;1.60;;;11.50;91.90;;;;;;5114766;28;20353;-74
2023/03/14 04:07:56;;;;;;;5.25;0.85;;;11.50;91.90;;;;;;5114665;28;20031;-74
2023/03/14 04:10:21;;;;;;;8.40;1.17;;;11.50;91.90;;;;;;5114726;28;20027;-74
2023/03/14 04:12:47;;;;;;;3.72;0.82;;;11.40;91.90;;;;;;5115591;28;20376;-74
2023/03/14 04:15:13;;;;;;;2.67;0.80;;;11.40;91.80;;;;;;5115594;28;20024;-74
2023/03/14 04:17:38;;;;;;;3.78;1.08;;;11.40;91.70;;;;;;5115558;28;20032;-74
2023/03/14 04:20:04;;;;;;;2.28;0.75;;;11.40;91.80;;;;;;5115489;28;20036;-74
2023/03/14 04:22:30;;;;;;;3.40;0.73;;;11.40;91.70;;;;;;5115537;28;20046;-74
2023/03/14 04:24:56;;;;;;;4.65;0.98;;;11.40;91.60;;;;;;5115380;28;20028;-74
2023/03/14 04:27:21;;;;;;;2.35;0.70;;;11.40;91.70;;;;;;5115362;28;20032;-74
2023/03/14 04:29:47;;;;;;;1.25;0.47;;;11.40;91.60;;;;;;5115255;28;20032;-74
2023/03/14 04:32:12;;;;;;;4.10;0.95;;;11.30;91.50;;;;;;5115222;28;20062;-73
2023/03/14 04:34:38;;;;;;;0.93;0.55;;;11.30;91.60;;;;;;5115210;28;20020;-74
2023/03/14 04:37:03;;;;;;;3.42;0.57;;;11.30;91.70;;;;;;5115040;28;20553;-73
2023/03/14 04:39:29;;;;;;;3.20;0.75;;;11.30;91.70;;;;;;5115106;28;20024;-74
2023/03/14 04:41:55;;;;;;;2.67;0.55;;;11.20;91.80;;;;;;5115036;28;20054;-73
2023/03/14 04:44:20;;;;;;;2.88;0.65;;;11.20;91.80;;;;;;5114968;28;20032;-74
2023/03/14 04:46:46;;;;;;;4.00;0.52;;;11.20;91.80;;;;;;5114988;28;20021;-74
2023/03/14 04:49:11;;;;;;;4.55;1.05;;;11.10;91.80;;;;;;5114595;28;20052;-74
2023/03/14 04:51:37;;;;;;;4.70;0.65;;;11.10;92.00;;;;;;5114825;28;20036;-74
2023/03/14 04:54:03;;;;;;;0.93;0.32;;;11.10;92.20;;;;;;5114832;28;20085;-74
2023/03/14 04:56:28;;;;;;;2.47;0.60;;;11.00;92.30;;;;;;5114722;28;20032;-73
2023/03/14 04:58:54;;;;;;;2.63;0.50;;;11.00;92.50;;;;;;5114628;28;20047;-73
2023/03/14 05:01:19;;;;;;;1.85;0.70;;;11.00;92.60;;;;;;5114617;28;20056;-74
2023/03/14 05:03:45;;;;;;;1.65;0.50;;;11.00;92.80;;;;;;5114626;28;20020;-73
2023/03/14 05:06:11;;;;;;;1.23;0.60;;;11.00;92.90;;;;;;5113703;28;20039;-74
2023/03/14 05:08:36;;;;;;;2.47;0.40;;;11.00;93.10;;;;;;5114300;28;20016;-73
2023/03/14 05:11:02;;;;;;;2.05;0.50;;;10.90;93.50;;;;;;5114432;28;20479;-74
2023/03/14 05:13:28;;;;;;;2.50;0.80;;;10.90;93.70;;;;;;5114443;28;20028;-73
2023/03/14 05:16:02;;;;;;;2.22;0.80;;;11.00;93.90;;;;;;5114365;28;20066;-74
2023/03/14 05:18:28;;;;;;;3.67;1.27;;;11.00;94.40;;;;;;5113355;28;20091;-73
2023/03/14 05:20:53;;;;;;;4.85;1.55;;;10.90;95.20;;;;;;5114350;28;20028;-73
2023/03/14 05:23:19;;;;;;;2.15;1.20;;;10.90;96.30;;;;;;5114241;28;20017;-74
2023/03/14 05:25:45;;;;;;;5.97;1.58;;;10.90;97.00;;;;;;5114215;28;20483;-73
2023/03/14 05:28:10;;;;;;;3.15;1.60;;;10.90;97.00;;;;;;5113266;28;20016;-75
2023/03/14 05:30:36;;;;;;;2.78;1.65;;;11.00;96.70;;;;;;5114126;28;20045;-74
2023/03/14 05:33:02;;;;;;;3.50;1.65;;;10.90;97.00;;;;;;5114107;28;20043;-73
2023/03/14 05:35:27;;;;;;;4.93;1.60;;;10.90;97.50;;;;;;5113108;28;20031;-74
2023/03/14 05:37:53;;;;;;;3.72;1.80;;;10.90;97.80;;;;;;5113934;28;20024;-73
2023/03/14 05:40:18;;;;;;;2.55;1.27;;;10.80;98.00;;;;;;5113972;28;20111;-74
2023/03/14 05:42:44;;;;;;;2.63;1.42;;;10.80;98.50;;;;;;5113933;28;20046;-74
2023/03/14 05:45:10;;;;;;;2.55;1.45;;;10.70;98.70;;;;;;5113925;28;20479;-73
2023/03/14 05:47:36;;;;;;;3.03;1.67;;;10.70;98.80;;;;;;5113682;28;20088;-74
2023/03/14 05:50:01;;;;;;;2.67;1.40;;;10.70;99.00;;;;;;5114023;28;20043;-73
2023/03/14 05:52:27;;;;;;;3.25;1.45;;;10.70;99.10;;;;;;5113782;28;20036;-74
2023/03/14 05:54:52;;;;;;;5.65;1.63;;;10.60;99.10;;;;;;5113845;28;20035;-73
2023/03/14 05:57:18;;;;;;;3.28;1.75;;;10.60;99.50;;;;;;5113666;28;20057;-74
2023/03/14 05:59:44;;;;;;;3.45;1.92;;;10.60;99.70;;;;;;5112732;28;20024;-74
2023/03/14 06:02:09;;;;;;;5.60;2.13;;;10.60;99.70;;;;;;5113625;28;20032;-74
2023/03/14 06:04:35;;;;;;;6.68;2.47;;;10.60;99.90;;;;;;5113639;28;20032;-74
2023/03/14 06:07:00;;;;;;;5.00;2.20;;;10.60;99.90;;;;;;5113615;28;20032;-74
2023/03/14 06:09:26;;;;;;;3.25;1.92;;;10.50;99.90;;;;;;5113516;28;20032;-73
2023/03/14 06:11:52;;;;;;;1.92;1.40;;;10.50;99.90;;;;;;5113568;28;20062;-74
2023/03/14 06:14:18;;;;;;;4.05;1.67;;;10.50;99.90;;;;;;5113416;28;20032;-74
2023/03/14 06:16:43;;;;;;;3.65;2.17;;;10.50;99.90;;;;;;5112550;28;20023;-73
2023/03/14 06:19:09;;;;;;;3.05;1.90;;;10.50;99.90;;;;;;5113417;28;20032;-74
2023/03/14 06:21:35;;;;;;;4.43;1.85;;;10.50;99.90;;;;;;5113925;28;20028;-74
2023/03/14 06:24:00;;;;;;;4.57;1.88;;;10.60;99.90;;;;;;5117703;28;20092;-74
2023/03/14 06:26:26;;;;;;;4.78;2.25;;;10.50;99.90;;;;;;5116766;28;20548;-74
2023/03/14 06:28:53;;;;;;;3.22;2.05;;;10.50;99.90;;;;;;5117586;28;20028;-74
2023/03/14 06:31:19;;;;;;;4.05;1.98;;;10.60;99.90;;;;;;5116736;28;20099;-73
2023/03/14 06:33:44;;;;;;;5.20;2.03;;;10.60;99.90;;;;;;5117489;28;20036;-74
2023/03/14 06:36:10;;;;;;;4.55;2.08;;;10.60;99.90;;;;;;5117459;28;20036;-74
2023/03/14 06:38:36;;;;;;;5.53;1.70;;;10.70;99.90;;;;;;5117357;28;20054;-75
2023/03/14 06:41:06;;;;;;;4.97;1.90;;;10.60;99.90;;;;;;5117482;28;20063;-74
2023/03/14 06:43:32;;;;;;;5.13;2.05;;;10.70;99.90;;;;;;5117337;28;20020;-74
2023/03/14 06:45:57;;;;;;;3.88;1.60;;;10.70;99.90;;;;;;5117237;28;20038;-75
2023/03/14 06:48:23;;;;;;;2.95;1.77;;;10.70;99.90;;;;;;5116955;28;20040;-74
2023/03/14 06:50:49;;;;;;;4.15;1.60;;;10.80;99.90;;;;;;5116234;28;20050;-74
2023/03/14 06:53:15;;;;;;;4.10;1.75;;;10.80;99.90;;;;;;5117278;28;20028;-74
2023/03/14 06:55:40;;;;;;;2.95;1.80;;;10.70;99.90;;;;;;5117096;28;20032;-75
2023/03/14 06:58:07;;;;;;;2.58;1.30;;;10.80;99.90;;;;;;5116098;28;20031;-74
2023/03/14 07:00:33;;;;;;;2.75;1.45;;;10.80;99.90;;;;;;5116096;28;20016;-74
2023/03/14 07:02:59;;;;;;;3.83;2.03;;;10.80;99.90;;;;;;5115792;28;20047;-74
2023/03/14 07:05:25;;;;;;;4.85;1.80;;;10.90;99.90;;;;;;5116964;28;20102;-74
2023/03/14 07:07:50;;;;;;;4.80;1.73;;;10.80;99.90;;;;;;5116665;28;20054;-75
2023/03/14 07:10:16;;;;;;;3.08;1.30;;;10.90;99.90;;;;;;5116044;28;20036;-75
2023/03/14 07:12:42;;;;;;;4.68;1.38;;;10.80;99.90;;;;;;5116741;28;20035;-75
2023/03/14 07:15:07;;;;;;;5.72;1.63;;;10.90;99.90;;;;;;5116729;28;20032;-73
2023/03/14 07:17:33;;;;;;;3.22;1.52;;;10.90;99.90;;;;;;5116595;28;20054;-74
2023/03/14 07:20:00;;;;;;;3.63;1.65;;;11.00;99.90;;;;;;5116621;28;20512;-74
2023/03/14 07:22:25;;;;;;;1.95;1.30;;;11.00;99.90;;;;;;5116575;28;20017;-74
2023/03/14 07:24:51;;;;;;;3.15;1.90;;;11.10;99.90;;;;;;5116572;28;20117;-74
2023/03/14 07:27:16;;;;;;;2.70;1.23;;;11.10;99.90;;;;;;5116458;28;20032;-73
2023/03/14 07:29:42;;;;;;;5.28;1.92;;;11.10;99.90;;;;;;5116474;28;20023;-73
2023/03/14 07:32:07;;;;;;;3.88;1.92;;;11.20;99.90;;;;;;5116123;28;20038;-73
2023/03/14 07:34:33;;;;;;;3.05;1.30;;;11.20;99.90;;;;;;5116372;28;20028;-74
2023/03/14 07:36:59;;;;;;;4.88;1.50;;;11.20;99.90;;;;;;5116426;28;20043;-74
2023/03/14 07:39:25;;;;;;;4.32;1.63;;;11.20;99.90;;;;;;5116181;28;20036;-74
2023/03/14 07:41:50;;;;;;;3.42;1.70;;;11.20;99.90;;;;;;5116225;28;20056;-74
2023/03/14 07:44:16;;;;;;;6.80;1.83;;;11.20;99.90;;;;;;5116155;28;20020;-74
2023/03/14 07:46:42;;;;;;;3.75;1.77;;;11.20;99.90;;;;;;5116128;28;20028;-74
2023/03/14 07:49:07;;;;;;;1.48;0.70;;;11.20;99.90;;;;;;5115002;28;20056;-73
2023/03/14 07:51:33;;;;;;;2.45;1.02;;;11.10;97.40;;;;;;5115090;28;20032;-73
2023/03/14 07:53:58;;;;;;;0.68;0.40;;;11.00;96.60;;;;;;5115182;28;20052;-73
2023/03/14 07:56:24;;;;;;;2.15;0.50;;;10.80;96.60;;;;;;5115966;28;20095;-74
2023/03/14 07:58:50;;;;;;;1.50;0.47;;;10.80;96.60;;;;;;5115849;28;20058;-73
2023/03/14 08:01:15;;;;;;;0.70;0.32;;;10.70;96.40;;;;;;5115824;28;20050;-72
2023/03/14 08:03:41;;;;;;;0.60;0.60;;;10.70;96.50;;;;;;5115833;28;20012;-72
2023/03/14 08:06:07;;;;;;;0.80;0.30;;;10.60;96.40;;;;;;5115782;28;20051;-72
2023/03/14 08:08:33;;;;;;;0.82;0.30;;;10.50;96.30;;;;;;5114675;28;20056;-72
2023/03/14 08:11:05;;;;;;;1.65;0.43;;;10.50;96.40;;;;;;5115692;28;20088;-72
2023/03/14 08:13:31;;;;;;;0.95;0.50;;;10.50;96.50;;;;;;5115690;28;20035;-73
2023/03/14 08:15:57;;;;;;;1.15;0.50;;;10.50;96.40;;;;;;5115600;28;20028;-73
2023/03/14 08:18:22;;;;;;;1.38;0.43;;;10.40;96.20;;;;;;5114587;28;20028;-73
2023/03/14 08:20:48;;;;;;;0.90;0.55;;;10.40;96.00;;;;;;5115500;28;20024;-73
2023/03/14 08:23:13;;;;;;;1.35;0.40;;;10.30;96.10;;;;;;5115445;28;20028;-73
2023/03/14 08:25:39;;;;;;;1.33;0.40;;;10.40;96.20;;;;;;5115432;28;20017;-72
2023/03/14 08:28:05;;;;;;;0.90;0.43;;;10.30;96.10;;;;;;5115343;28;20453;-73
2023/03/14 08:30:30;;;;;;;0.57;0.35;;;10.30;96.20;;;;;;5114419;28;20032;-73
2023/03/14 08:32:58;;;;;;;1.88;0.70;;;10.20;96.10;;;;;;5115224;28;20054;-72
2023/03/14 08:35:24;;;;;;;2.45;1.05;;;10.20;96.20;;;;;;5115184;28;20032;-73
2023/03/14 08:37:49;;;;;;;2.50;0.93;;;10.20;96.30;;;;;;5114050;28;20383;-73
2023/03/14 08:40:16;;;;;;;3.30;1.27;;;10.20;96.40;;;;;;5115068;28;20054;-73
2023/03/14 08:42:42;;;;;;;2.92;1.33;;;10.20;96.50;;;;;;5114114;28;20028;-73
2023/03/14 08:45:11;;;;;;;3.53;1.70;;;10.20;96.50;;;;;;5114253;28;20032;-73
2023/03/14 08:47:36;;;;;;;2.95;1.83;;;10.20;96.70;;;;;;5114917;28;20028;-73
2023/03/14 08:50:03;;;;;;;4.00;1.50;;;10.20;96.40;;;;;;5114767;28;20047;-72
2023/03/14 08:52:30;;;;;;;2.72;1.63;;;10.20;96.60;;;;;;5114848;28;20125;-73
2023/03/14 08:54:56;;;;;;;6.25;1.83;;;10.30;96.30;;;;;;5114824;28;20032;-73
2023/03/14 08:57:21;;;;;;;5.38;1.88;;;10.30;96.30;;;;;;5114673;28;20040;-73
2023/03/14 08:59:47;;;;;;;2.72;1.40;;;10.30;96.40;;;;;;5114722;28;20110;-73
2023/03/14 09:02:13;;;;;;;2.40;1.23;;;10.30;95.90;;;;;;5114648;28;20050;-73
2023/03/14 09:04:39;;;;;;;2.15;1.23;;;10.30;95.80;;;;;;5114612;28;20031;-73
2023/03/14 09:07:04;;;;;;;2.97;1.50;;;10.30;95.70;;;;;;5114714;28;20028;-73
2023/03/14 09:09:30;;;;;;;3.75;1.40;;;10.30;95.20;;;;;;5114494;28;20088;-73
2023/03/14 09:11:56;;;;;;;1.77;1.30;;;10.20;95.00;;;;;;5113636;28;20027;-73
2023/03/14 09:14:22;;;;;;;3.08;1.40;;;10.20;94.80;;;;;;5114467;28;20024;-73
2023/03/14 09:16:48;;;;;;;1.67;1.05;;;10.20;94.80;;;;;;5114554;28;20032;-73
2023/03/14 09:19:13;;;;;;;2.92;1.40;;;10.20;94.90;;;;;;5114239;28;20028;-73
2023/03/14 09:21:39;;;;;;;0.82;0.50;;;10.20;94.80;;;;;;5114348;28;20024;-72
2023/03/14 09:24:05;;;;;;;0.82;0.40;;;10.00;94.00;;;;;;5114248;28;20024;-73
2023/03/14 09:26:31;;;;;;;1.55;0.40;;;9.90;93.80;;;;;;5114250;28;20028;-73
2023/03/14 09:28:57;;;;;;;1.92;0.20;;;9.80;93.70;;;;;;5114196;28;20038;-73
2023/03/14 09:31:22;;;;;;;0.20;0.10;;;9.70;93.00;;;;;;5114171;28;20058;-73
2023/03/14 09:33:48;;;;;;;0.90;0.20;;;9.60;93.00;;;;;;5114108;28;20036;-73
2023/03/14 09:36:14;;;;;;;0.28;0.17;;;9.60;93.30;;;;;;5113188;28;20039;-73
2023/03/14 09:38:39;;;;;;;1.98;0.47;;;9.60;92.80;;;;;;5114107;28;20095;-73
2023/03/14 09:41:21;;;;;;;1.33;0.50;;;9.60;93.20;;;;;;5114023;28;20028;-73
2023/03/14 09:43:50;;;;;;;3.13;0.30;;;9.70;93.10;;;;;;5113973;28;20033;-73
2023/03/14 09:46:16;;;;;;;1.45;0.20;;;9.60;92.80;;;;;;5113904;28;20046;-73
2023/03/14 09:48:43;;;;;;;0.57;0.17;;;9.60;92.40;;;;;;5113750;28;20048;-73
2023/03/14 09:51:18;;;;;;;2.20;0.38;;;9.50;92.70;;;;;;5113853;28;20034;-73
2023/03/14 09:53:47;;;;;;;1.45;0.32;;;9.60;92.90;;;;;;5113819;28;20077;-73
2023/03/14 09:56:27;;;;;;;1.27;0.50;;;9.70;92.90;;;;;;5113780;28;20024;-73
2023/03/14 09:58:59;;;;;;;3.33;0.28;;;9.90;93.20;;;;;;5113732;28;20092;-73
2023/03/14 10:01:28;;;;;;;1.38;0.30;;;10.10;93.00;;;;;;5113679;28;20039;-73
2023/03/14 10:04:00;;;;;;;0.38;0.28;;;10.30;92.50;;;;;;5113662;28;20024;-73
2023/03/14 10:06:29;;;;;;;0.45;0.10;;;10.30;91.00;;;;;;5113633;28;20028;-72
2023/03/14 10:08:56;;;;;;;0.90;0.30;;;10.30;90.50;;;;;;5113703;28;20042;-73
2023/03/14 10:11:22;;;;;;;1.92;0.40;;;10.40;91.00;;;;;;5113612;28;20048;-72
2023/03/14 10:14:11;;;;;;;1.75;0.20;;;10.40;91.00;;;;;;5113574;28;20028;-73
2023/03/14 10:16:45;;;;;;;2.55;0.68;;;10.40;90.20;;;;;;5112539;28;20050;-72
2023/03/14 10:19:16;;;;;;;2.17;0.30;;;10.40;90.20;;;;;;5113604;28;20020;-73
2023/03/14 10:21:52;;;;;;;1.97;0.50;;;10.30;90.10;;;;;;5113683;28;20020;-72
2023/03/14 10:24:27;;;;;;;1.75;0.30;;;10.30;90.00;;;;;;5113480;28;20030;-73
2023/03/14 10:26:54;;;;;;;4.13;0.40;;;10.30;88.60;;;;;;5113495;28;20054;-73
2023/03/14 10:29:21;;;;;;;1.90;0.35;;;10.20;86.70;;;;;;5113605;28;20032;-73
2023/03/14 10:31:52;;;;;;;4.32;0.93;;;10.10;87.60;;;;;;5095754;28;20028;-73
2023/03/14 10:34:24;;;;;;;1.60;0.32;;;10.10;87.60;;;;;;5113533;28;20029;-72
2023/03/14 10:36:55;;;;;;;7.80;0.65;;;10.10;88.40;;;;;;5113423;28;20050;-73
2023/03/14 10:39:31;;;;;;;2.47;0.63;;;10.20;86.80;;;;;;5113267;28;20028;-72
2023/03/14 10:42:12;;;;;;;2.97;0.55;;;10.10;87.40;;;;;;5113361;28;20031;-72
2023/03/14 10:44:38;;;;;;;3.83;0.70;;;10.20;87.10;;;;;;5113314;28;20020;-73
2023/03/14 10:47:05;;;;;;;4.47;0.90;;;10.30;87.20;;;;;;5113238;28;20025;-73
2023/03/14 10:49:37;;;;;;;4.93;0.93;;;10.30;86.50;;;;;;5112092;28;20117;-73
2023/03/14 10:52:09;;;;;;;2.83;0.88;;;10.30;86.30;;;;;;5112331;28;20028;-73
2023/03/14 10:54:34;;;;;;;6.32;1.02;;;10.30;85.20;;;;;;5112151;28;20039;-73
2023/03/14 10:57:04;;;;;;;5.72;0.80;;;10.40;83.50;;;;;;5113200;28;20024;-73
2023/03/14 10:59:36;;;;;;;10.20;1.27;;;10.40;83.70;;;;;;5113028;28;20028;-72
2023/03/14 11:02:01;;;;;;;4.82;0.82;;;10.40;83.50;;;;;;5113140;28;20044;-72
2023/03/14 11:04:49;;;;;;;6.13;0.95;;;10.40;83.70;;;;;;5112088;28;20035;-73
2023/03/14 11:07:33;;;;;;;8.65;1.70;;;10.60;84.30;;;;;;5113909;28;20028;-73
2023/03/14 11:10:10;;;;;;;7.65;0.80;;;10.60;83.00;;;;;;5116723;28;20023;-72
2023/03/14 11:13:11;;;;;;;4.40;1.08;;;10.60;81.70;;;;;;5116993;28;20028;-72
2023/03/14 11:15:43;;;;;;;5.80;1.05;;;10.60;82.50;;;;;;5116762;28;20028;-73
2023/03/14 11:18:39;;;;;;;5.57;0.98;;;10.50;80.60;;;;;;5116686;28;20032;-73
2023/03/14 11:21:17;;;;;;;2.45;0.68;;;10.50;81.50;;;;;;5115902;28;20044;-73
2023/03/14 11:24:05;;;;;;;3.75;0.93;;;10.60;80.10;;;;;;5116777;28;20024;-73
2023/03/14 11:26:52;;;;;;;7.43;1.10;;;10.60;80.00;;;;;;5078454;28;20043;-73
2023/03/14 11:29:35;;;;;;;7.03;1.13;;;10.50;79.70;;;;;;5115465;28;20475;-72
2023/03/14 11:32:04;;;;;;;8.18;1.10;;;10.20;82.00;;;;;;5116551;28;20027;-72
2023/03/14 11:34:40;;;;;;;5.68;1.00;;;10.00;82.90;;;;;;5116422;28;20028;-72
2023/03/14 11:37:14;;;;;;;12.73;1.27;;;10.00;83.90;;;;;;5116408;28;20024;-73
2023/03/14 11:39:44;;;;;;;8.27;1.00;;;9.90;84.40;;;;;;5116350;28;20020;-72
2023/03/14 11:42:14;;;;;;;8.10;1.52;;;9.90;84.80;;;;;;5116451;28;20036;-73
2023/03/14 11:44:42;;;;;;;7.32;1.45;;;9.90;84.70;;;;;;5116224;28;20467;-73
2023/03/14 11:47:30;;;;;;;5.63;0.93;;;10.00;84.80;;;;;;5116135;28;20125;-73
2023/03/14 11:50:16;;;;;;;7.95;1.52;;;10.00;84.80;;;;;;5115818;28;20047;-72
2023/03/14 11:52:54;;;;;;;9.95;1.58;;;10.00;85.00;;;;;;5116088;28;20028;-73
2023/03/14 11:55:35;;;;;;;8.68;1.42;;;10.10;84.70;;;;;;5115999;28;20028;-72
2023/03/14 11:58:11;;;;;;;5.88;1.30;;;10.10;84.80;;;;;;5115828;28;20040;-72
2023/03/14 12:00:39;;;;;;;8.15;1.40;;;10.20;84.40;;;;;;5115980;28;20035;-72
2023/03/14 12:03:30;;;;;;;14.57;2.05;;;10.20;84.60;;;;;;5115856;28;20458;-72
2023/03/14 12:06:04;;;;;;;6.75;1.20;;;10.20;84.10;;;;;;5115972;28;20028;-72
2023/03/14 12:08:44;;;;;;;8.23;1.27;;;10.20;83.60;;;;;;5115839;28;20028;-73
2023/03/14 12:11:16;;;;;;;6.97;1.08;;;10.10;83.70;;;;;;5115897;28;20024;-72
2023/03/14 12:13:50;;;;;;;8.02;1.42;;;10.10;85.20;;;;;;5115830;28;20027;-72
2023/03/14 12:16:37;;;;;;;6.30;1.05;;;10.10;84.90;;;;;;5115666;28;20028;-72
2023/03/14 12:19:28;;;;;;;9.93;1.33;;;10.10;84.50;;;;;;5114293;28;20050;-72
2023/03/14 12:21:53;;;;;;;9.95;1.08;;;10.20;83.60;;;;;;5105792;28;20039;-72
2023/03/14 12:24:26;;;;;;;9.73;1.27;;;10.20;83.10;;;;;;5115321;28;20028;-72
2023/03/14 12:26:54;;;;;;;15.80;1.92;;;10.20;82.50;;;;;;5115538;28;20099;-72
2023/03/14 12:29:20;;;;;;;12.35;1.60;;;10.20;80.20;;;;;;5115241;28;20020;-72
2023/03/14 12:31:49;;;;;;;5.80;1.27;;;10.20;80.60;;;;;;5115230;28;20028;-73
2023/03/14 12:34:14;;;;;;;6.05;1.10;;;10.30;79.50;;;;;;5115183;28;20020;-72
2023/03/14 12:36:49;;;;;;;4.00;0.93;;;10.30;78.70;;;;;;5114136;28;20031;-73
2023/03/14 12:39:29;;;;;;;9.05;1.30;;;10.40;77.20;;;;;;5115013;28;20046;-73
2023/03/14 12:42:12;;;;;;;12.18;1.35;;;10.60;76.50;;;;;;5115183;28;20030;-73
2023/03/14 12:44:40;;;;;;;11.15;1.20;;;10.70;74.90;;;;;;5114979;28;20070;-72
2023/03/14 12:47:18;;;;;;;7.20;1.10;;;10.80;76.40;;;;;;5114775;28;20119;-72
2023/03/14 12:49:46;;;;;;;7.38;1.70;;;11.00;75.00;;;;;;5113672;28;20099;-73
2023/03/14 12:52:35;;;;;;;7.93;1.40;;;11.20;75.00;;;;;;5114900;28;20034;-73
2023/03/14 12:55:30;;;;;;;15.55;1.63;;;11.40;73.30;;;;;;5114830;28;20027;-73